createdAt,value
2023-07-02T00:02:30.017Z,4.11
2023-07-02T00:05:00.137Z,4.04
2023-07-02T00:07:30.206Z,4.18
2023-07-02T00:10:02.803Z,4.17
2023-07-02T00:12:33.205Z,4.29
2023-07-02T00:15:05.346Z,4.14
2023-07-02T00:17:35.535Z,4.27
2023-07-02T00:20:10.313Z,3.95
2023-07-02T00:22:40.312Z,3.95
2023-07-02T00:25:13.093Z,4.15
2023-07-02T00:27:43.123Z,4.16
2023-07-02T00:30:14.052Z,4.68
2023-07-02T00:32:46.636Z,4.37
2023-07-02T00:35:16.884Z,4.14
2023-07-02T00:37:47.696Z,3.96
2023-07-02T00:40:20.298Z,4.20
2023-07-02T00:42:52.143Z,4.25
2023-07-02T00:45:22.431Z,3.95
2023-07-02T00:47:53.194Z,3.84
2023-07-02T00:50:24.423Z,4.16
2023-07-02T00:52:55.317Z,4.03
2023-07-02T00:55:28.469Z,3.90
2023-07-02T00:57:59.347Z,4.07
2023-07-02T01:00:30.081Z,4.20
2023-07-02T01:03:01.166Z,4.32
2023-07-02T01:05:37.126Z,4.22
2023-07-02T01:08:07.304Z,4.68
2023-07-02T01:10:40.030Z,4.13
2023-07-02T01:13:16.160Z,4.24
2023-07-02T01:15:48.321Z,4.15
2023-07-02T01:18:19.464Z,4.44
2023-07-02T01:20:52.324Z,4.50
2023-07-02T01:23:22.890Z,4.37
2023-07-02T01:25:55.830Z,4.28
2023-07-02T01:28:26.239Z,4.26
2023-07-02T01:30:56.312Z,4.44
2023-07-02T01:33:26.286Z,4.24
2023-07-02T01:35:59.009Z,4.57
2023-07-02T01:38:29.050Z,4.35
2023-07-02T01:40:59.021Z,4.79
2023-07-02T01:43:29.166Z,4.47
2023-07-02T01:46:02.920Z,4.57
2023-07-02T01:48:33.006Z,4.56
2023-07-02T01:51:05.842Z,4.14
2023-07-02T01:53:35.813Z,4.54
2023-07-02T01:56:06.339Z,4.05
2023-07-02T01:58:36.356Z,3.56
2023-07-02T02:01:06.436Z,4.42
2023-07-02T02:03:36.590Z,4.67
2023-07-02T02:06:09.336Z,4.57
2023-07-02T02:08:39.321Z,4.27
2023-07-02T02:11:09.628Z,3.99
2023-07-02T02:13:39.667Z,3.81
2023-07-02T02:16:09.792Z,3.67
2023-07-02T02:18:39.842Z,4.12
2023-07-02T02:21:12.435Z,3.75
2023-07-02T02:23:42.931Z,3.65
2023-07-02T02:26:12.977Z,3.72
2023-07-02T02:28:42.996Z,3.98
2023-07-02T02:31:13.604Z,3.86
2023-07-02T02:33:43.954Z,3.87
2023-07-02T02:36:17.134Z,3.78
2023-07-02T02:38:47.402Z,3.19
2023-07-02T02:41:18.360Z,3.67
2023-07-02T02:43:53.622Z,3.80
2023-07-02T02:46:25.671Z,3.61
2023-07-02T02:48:56.872Z,3.52
2023-07-02T02:51:29.559Z,3.80
2023-07-02T02:53:59.594Z,3.78
2023-07-02T02:56:29.625Z,3.42
2023-07-02T02:58:59.695Z,3.71
2023-07-02T03:01:32.236Z,3.36
2023-07-02T03:04:03.572Z,3.44
2023-07-02T03:06:36.250Z,3.40
2023-07-02T03:09:06.515Z,3.28
2023-07-02T03:11:36.653Z,3.54
2023-07-02T03:14:06.721Z,3.29
2023-07-02T03:16:37.108Z,3.35
2023-07-02T03:19:07.171Z,3.28
2023-07-02T03:21:39.761Z,3.57
2023-07-02T03:24:11.692Z,3.44
2023-07-02T03:26:41.774Z,3.51
2023-07-02T03:29:11.981Z,3.46
2023-07-02T03:31:42.423Z,3.59
2023-07-02T03:34:13.819Z,3.75
2023-07-02T03:36:46.431Z,3.56
2023-07-02T03:39:16.475Z,3.44
2023-07-02T03:41:47.487Z,3.44
2023-07-02T03:44:17.549Z,3.61
2023-07-02T03:46:48.092Z,3.48
2023-07-02T03:49:18.118Z,3.83
2023-07-02T03:51:50.734Z,3.78
2023-07-02T03:54:20.720Z,3.74
2023-07-02T03:56:50.704Z,3.90
2023-07-02T03:59:20.698Z,4.08
2023-07-02T04:01:50.868Z,3.75
2023-07-02T04:04:21.015Z,3.80
2023-07-02T04:06:53.673Z,4.09
2023-07-02T04:09:23.867Z,4.25
2023-07-02T04:11:53.969Z,4.38
2023-07-02T04:14:23.940Z,4.07
2023-07-02T04:16:53.920Z,4.28
2023-07-02T04:19:23.892Z,4.11
2023-07-02T04:21:56.568Z,4.17
2023-07-02T04:24:26.949Z,4.16
2023-07-02T04:27:07.866Z,4.36
2023-07-02T04:29:47.505Z,4.37
2023-07-02T04:32:17.581Z,4.78
2023-07-02T04:34:47.665Z,4.66
2023-07-02T04:37:20.270Z,4.33
2023-07-02T04:39:50.353Z,4.75
2023-07-02T04:42:20.439Z,4.80
2023-07-02T04:44:50.453Z,5.32
2023-07-02T04:47:20.407Z,5.09
2023-07-02T04:49:50.498Z,5.25
2023-07-02T04:52:23.032Z,5.53
2023-07-02T04:54:53.060Z,4.83
2023-07-02T04:57:23.179Z,5.24
2023-07-02T04:59:53.457Z,4.75
2023-07-02T05:02:23.437Z,4.89
2023-07-02T05:04:53.560Z,4.56
2023-07-02T05:07:26.206Z,5.12
2023-07-02T05:09:56.251Z,4.86
2023-07-02T05:12:27.227Z,4.88
2023-07-02T05:14:57.251Z,4.71
2023-07-02T05:17:27.580Z,5.35
2023-07-02T05:19:57.624Z,5.34
2023-07-02T05:22:32.639Z,5.02
2023-07-02T05:25:02.942Z,5.45
2023-07-02T05:27:32.971Z,5.44
2023-07-02T05:30:03.016Z,5.40
2023-07-02T05:32:33.209Z,6.00
2023-07-02T05:35:03.351Z,5.56
2023-07-02T05:37:35.973Z,5.55
2023-07-02T05:40:06.128Z,5.98
2023-07-02T05:42:36.148Z,6.13
2023-07-02T05:45:06.567Z,5.47
2023-07-02T05:47:36.542Z,5.44
2023-07-02T05:50:06.716Z,6.01
2023-07-02T05:52:39.336Z,5.61
2023-07-02T05:55:13.928Z,6.04
2023-07-02T05:57:43.968Z,5.45
2023-07-02T06:00:15.568Z,5.50
2023-07-02T06:02:46.905Z,5.56
2023-07-02T06:05:17.093Z,5.47
2023-07-02T06:07:49.767Z,5.55
2023-07-02T06:10:20.292Z,5.29
2023-07-02T06:12:50.356Z,5.02
2023-07-02T06:15:20.368Z,5.14
2023-07-02T06:17:50.454Z,5.14
2023-07-02T06:20:20.572Z,5.28
2023-07-02T06:22:53.142Z,5.18
2023-07-02T06:25:23.184Z,4.77
2023-07-02T06:27:55.878Z,5.44
2023-07-02T06:30:26.271Z,5.82
2023-07-02T06:32:59.520Z,6.32
2023-07-02T06:35:29.605Z,6.70
2023-07-02T06:38:02.256Z,6.92
2023-07-02T06:40:33.086Z,7.44
2023-07-02T06:43:03.182Z,7.41
2023-07-02T06:45:33.269Z,8.00
2023-07-02T06:48:03.450Z,7.84
2023-07-02T06:50:33.483Z,8.97
2023-07-02T06:53:06.118Z,9.31
2023-07-02T06:55:36.217Z,9.22
2023-07-02T06:58:08.119Z,10.59
2023-07-02T07:00:39.213Z,10.33
2023-07-02T07:03:09.595Z,10.47
2023-07-02T07:05:39.665Z,11.26
2023-07-02T07:08:12.265Z,12.19
2023-07-02T07:10:42.283Z,12.90
2023-07-02T07:13:12.256Z,12.94
2023-07-02T07:15:42.529Z,12.78
2023-07-02T07:18:13.722Z,13.14
2023-07-02T07:20:45.656Z,13.93
2023-07-02T07:23:19.524Z,15.43
2023-07-02T07:25:49.602Z,15.38
2023-07-02T07:28:19.658Z,15.52
2023-07-02T07:30:50.341Z,15.96
2023-07-02T07:33:21.004Z,15.59
2023-07-02T07:35:51.387Z,14.98
2023-07-02T07:38:24.147Z,16.35
2023-07-02T07:40:54.671Z,15.43
2023-07-02T07:43:24.809Z,15.68
2023-07-02T07:45:56.166Z,15.01
2023-07-02T07:48:26.405Z,14.91
2023-07-02T07:50:56.905Z,15.37
2023-07-02T07:53:29.606Z,17.19
2023-07-02T07:56:00.623Z,18.14
2023-07-02T07:58:30.633Z,18.96
2023-07-02T08:01:00.689Z,19.38
2023-07-02T08:03:30.726Z,19.39
2023-07-02T08:06:00.799Z,19.42
2023-07-02T08:08:33.416Z,19.46
2023-07-02T08:11:03.607Z,19.29
2023-07-02T08:13:33.749Z,19.02
2023-07-02T08:16:03.971Z,19.35
2023-07-02T08:18:34.155Z,19.00
2023-07-02T08:21:06.216Z,19.81
2023-07-02T08:23:39.033Z,19.84
2023-07-02T08:26:09.270Z,20.43
2023-07-02T08:28:39.898Z,20.51
2023-07-02T08:31:10.085Z,20.71
2023-07-02T08:33:40.265Z,20.61
2023-07-02T08:36:10.519Z,21.16
2023-07-02T08:38:44.468Z,20.73
2023-07-02T08:41:14.833Z,20.79
2023-07-02T08:43:45.188Z,21.22
2023-07-02T08:46:16.409Z,20.89
2023-07-02T08:48:46.501Z,20.84
2023-07-02T08:51:17.237Z,20.77
2023-07-02T08:53:50.992Z,20.25
2023-07-02T08:56:21.127Z,21.21
2023-07-02T08:58:51.264Z,21.46
2023-07-02T09:01:21.491Z,21.80
2023-07-02T09:03:53.263Z,21.98
2023-07-02T09:06:25.288Z,21.44
2023-07-02T09:09:08.182Z,21.65
2023-07-02T09:11:39.084Z,21.52
2023-07-02T09:14:09.697Z,21.60
2023-07-02T09:16:41.814Z,21.44
2023-07-02T09:19:14.023Z,21.40
2023-07-02T09:21:47.484Z,21.37
2023-07-02T09:24:22.704Z,20.60
2023-07-02T09:26:55.073Z,21.90
2023-07-02T09:29:27.937Z,21.38
2023-07-02T09:32:09.368Z,21.25
2023-07-02T09:34:43.775Z,22.06
2023-07-02T09:37:13.974Z,22.37
2023-07-02T09:39:47.438Z,22.69
2023-07-02T09:42:18.120Z,21.59
2023-07-02T09:44:49.223Z,21.62
2023-07-02T09:47:23.140Z,22.41
2023-07-02T09:49:57.679Z,21.29
2023-07-02T09:52:29.260Z,22.17
2023-07-02T09:55:02.428Z,20.68
2023-07-02T09:57:32.740Z,21.86
2023-07-02T10:00:03.827Z,22.02
2023-07-02T10:02:37.458Z,21.54
2023-07-02T10:05:08.256Z,21.63
2023-07-02T10:07:38.511Z,21.22
2023-07-02T10:10:12.081Z,22.00
2023-07-02T10:12:50.193Z,20.27
2023-07-02T10:15:29.313Z,20.62
2023-07-02T10:18:00.834Z,20.37
2023-07-02T10:20:39.931Z,21.18
2023-07-02T10:23:11.604Z,20.53
2023-07-02T10:25:44.253Z,20.78
2023-07-02T10:28:27.863Z,20.18
2023-07-02T10:31:00.633Z,20.05
2023-07-02T10:33:34.913Z,18.85
2023-07-02T10:36:05.039Z,19.31
2023-07-02T10:38:35.121Z,20.03
2023-07-02T10:41:10.700Z,20.24
2023-07-02T10:43:40.795Z,20.84
2023-07-02T10:46:10.939Z,20.80
2023-07-02T10:48:42.593Z,19.63
2023-07-02T10:51:17.353Z,19.65
2023-07-02T10:53:48.660Z,19.16
2023-07-02T10:56:23.418Z,20.53
2023-07-02T10:58:53.921Z,19.71
2023-07-02T11:01:28.356Z,19.82
2023-07-02T11:04:06.669Z,19.33
2023-07-02T11:06:37.090Z,19.12
2023-07-02T11:09:07.262Z,19.06
2023-07-02T11:11:39.918Z,18.99
2023-07-02T11:14:10.023Z,18.33
2023-07-02T11:16:40.216Z,19.40
2023-07-02T11:19:13.178Z,20.79
2023-07-02T11:21:53.789Z,21.13
2023-07-02T11:24:32.003Z,20.32
2023-07-02T11:27:06.925Z,20.68
2023-07-02T11:29:39.860Z,20.37
2023-07-02T11:32:10.763Z,20.45
2023-07-02T11:34:41.989Z,20.19
2023-07-02T11:37:12.192Z,19.62
2023-07-02T11:39:42.279Z,19.68
2023-07-02T11:42:15.091Z,20.97
2023-07-02T11:44:45.308Z,20.15
2023-07-02T11:47:15.486Z,18.87
2023-07-02T11:49:45.909Z,19.92
2023-07-02T11:52:16.868Z,19.93
2023-07-02T11:54:46.918Z,19.02
2023-07-02T11:57:19.598Z,19.13
2023-07-02T11:59:50.538Z,18.69
2023-07-02T12:02:20.694Z,18.53
2023-07-02T12:04:50.878Z,18.80
2023-07-02T12:07:21.089Z,18.75
2023-07-02T12:09:51.167Z,18.97
2023-07-02T12:12:25.859Z,18.85
2023-07-02T12:14:55.928Z,18.16
2023-07-02T12:17:26.077Z,18.88
2023-07-02T12:19:56.220Z,19.12
2023-07-02T12:22:26.345Z,18.91
2023-07-02T12:24:58.837Z,19.33
2023-07-02T12:27:31.545Z,17.65
2023-07-02T12:30:01.546Z,17.45
2023-07-02T12:32:31.650Z,17.19
2023-07-02T12:35:02.583Z,16.96
2023-07-02T12:37:32.609Z,16.90
2023-07-02T12:40:02.752Z,16.85
2023-07-02T12:42:35.343Z,17.45
2023-07-02T12:45:05.414Z,18.52
2023-07-02T12:47:35.633Z,18.12
2023-07-02T12:50:05.905Z,17.48
2023-07-02T12:52:36.182Z,17.47
2023-07-02T12:55:06.924Z,16.67
2023-07-02T12:57:39.616Z,17.47
2023-07-02T13:00:11.404Z,16.80
2023-07-02T13:02:54.166Z,16.93
2023-07-02T13:05:31.642Z,17.70
2023-07-02T13:08:01.849Z,17.02
2023-07-02T13:10:33.166Z,17.17
2023-07-02T13:13:21.757Z,17.81
2023-07-02T13:15:55.017Z,18.01
2023-07-02T13:18:25.021Z,17.42
2023-07-02T13:20:55.060Z,17.05
2023-07-02T13:23:25.112Z,16.75
2023-07-02T13:25:55.350Z,16.62
2023-07-02T13:28:29.518Z,16.34
2023-07-02T13:31:00.327Z,16.40
2023-07-02T13:33:32.142Z,16.37
2023-07-02T13:36:02.347Z,16.83
2023-07-02T13:38:32.491Z,16.50
2023-07-02T13:41:03.151Z,16.21
2023-07-02T13:43:35.861Z,16.25
2023-07-02T13:46:07.359Z,16.12
2023-07-02T13:48:37.550Z,16.56
2023-07-02T13:51:09.323Z,18.00
2023-07-02T13:53:39.365Z,16.17
2023-07-02T13:56:09.496Z,15.58
2023-07-02T13:59:06.226Z,15.22
2023-07-02T14:01:36.682Z,14.66
2023-07-02T14:04:07.902Z,15.39
2023-07-02T14:06:38.069Z,14.33
2023-07-02T14:09:10.771Z,15.54
2023-07-02T14:11:43.072Z,15.22
2023-07-02T14:14:16.150Z,14.82
2023-07-02T14:16:46.647Z,15.65
2023-07-02T14:19:18.230Z,15.82
2023-07-02T14:21:48.417Z,14.96
2023-07-02T14:24:18.984Z,15.04
2023-07-02T14:26:49.039Z,15.73
2023-07-02T14:29:21.971Z,14.88
2023-07-02T14:31:53.991Z,15.68
2023-07-02T14:34:24.185Z,15.66
2023-07-02T14:36:54.228Z,15.53
2023-07-02T14:39:24.192Z,15.73
2023-07-02T14:41:54.757Z,15.45
2023-07-02T14:44:27.469Z,14.65
2023-07-02T14:46:57.657Z,14.69
2023-07-02T14:49:27.811Z,15.02
2023-07-02T14:51:57.803Z,15.31
2023-07-02T14:54:27.866Z,14.63
2023-07-02T14:56:57.866Z,14.60
2023-07-02T14:59:30.566Z,13.92
2023-07-02T15:02:00.559Z,14.95
2023-07-02T15:04:32.493Z,14.96
2023-07-02T15:07:02.769Z,14.55
2023-07-02T15:09:32.931Z,14.17
2023-07-02T15:12:03.043Z,14.24
2023-07-02T15:14:35.631Z,14.48
2023-07-02T15:17:05.835Z,14.77
2023-07-02T15:19:38.801Z,14.49
2023-07-02T15:22:09.019Z,14.81
2023-07-02T15:24:39.079Z,14.36
2023-07-02T15:27:09.796Z,14.58
2023-07-02T15:29:42.537Z,14.07
2023-07-02T15:32:12.597Z,14.51
2023-07-02T15:34:42.779Z,14.56
2023-07-02T15:37:12.836Z,13.88
2023-07-02T15:39:42.957Z,14.74
2023-07-02T15:42:13.162Z,14.83
2023-07-02T15:44:45.774Z,14.75
2023-07-02T15:47:16.478Z,15.13
2023-07-02T15:49:46.599Z,14.67
2023-07-02T15:52:16.725Z,15.15
2023-07-02T15:54:46.810Z,14.88
2023-07-02T15:57:16.912Z,15.09
2023-07-02T15:59:49.602Z,15.01
2023-07-02T16:02:19.733Z,15.33
2023-07-02T16:04:50.018Z,14.61
2023-07-02T16:07:20.242Z,14.58
2023-07-02T16:09:50.302Z,14.48
2023-07-02T16:12:20.378Z,14.74
2023-07-02T16:14:53.034Z,14.48
2023-07-02T16:17:23.173Z,14.67
2023-07-02T16:19:53.253Z,14.82
2023-07-02T16:22:23.312Z,14.70
2023-07-02T16:24:53.380Z,15.14
2023-07-02T16:27:24.269Z,14.46
2023-07-02T16:29:56.867Z,14.26
2023-07-02T16:32:29.912Z,14.74
2023-07-02T16:35:00.044Z,14.11
2023-07-02T16:37:30.221Z,14.39
2023-07-02T16:40:00.418Z,15.02
2023-07-02T16:42:30.535Z,15.08
2023-07-02T16:45:06.957Z,14.92
2023-07-02T16:47:38.311Z,14.75
2023-07-02T16:50:09.805Z,15.39
2023-07-02T16:52:39.895Z,15.28
2023-07-02T16:55:10.625Z,15.41
2023-07-02T16:57:40.703Z,14.90
2023-07-02T17:00:14.901Z,16.17
2023-07-02T17:02:44.965Z,15.20
2023-07-02T17:05:15.347Z,15.67
2023-07-02T17:07:45.353Z,15.19
2023-07-02T17:10:15.463Z,14.84
2023-07-02T17:12:45.613Z,14.87
2023-07-02T17:15:18.581Z,14.50
2023-07-02T17:17:48.817Z,15.62
2023-07-02T17:20:19.136Z,15.34
2023-07-02T17:22:49.285Z,15.81
2023-07-02T17:25:19.606Z,15.57
2023-07-02T17:27:49.661Z,15.19
2023-07-02T17:30:22.569Z,15.34
2023-07-02T17:32:52.726Z,15.03
2023-07-02T17:35:22.803Z,16.12
2023-07-02T17:37:52.836Z,15.66
2023-07-02T17:40:23.159Z,14.98
2023-07-02T17:42:53.266Z,14.94
2023-07-02T17:45:25.951Z,15.41
2023-07-02T17:47:56.058Z,15.88
2023-07-02T17:50:26.300Z,15.84
2023-07-02T17:52:56.364Z,15.68
2023-07-02T17:55:28.530Z,15.76
2023-07-02T17:58:00.061Z,15.88
2023-07-02T18:00:32.833Z,15.37
2023-07-02T18:03:03.037Z,15.80
2023-07-02T18:05:33.283Z,15.91
2023-07-02T18:08:03.401Z,16.04
2023-07-02T18:10:33.501Z,16.97
2023-07-02T18:13:03.539Z,18.30
2023-07-02T18:15:36.184Z,20.23
2023-07-02T18:18:06.250Z,15.48
2023-07-02T18:20:36.805Z,15.57
2023-07-02T18:23:06.875Z,15.40
2023-07-02T18:25:36.909Z,16.73
2023-07-02T18:28:09.117Z,15.75
2023-07-02T18:30:46.464Z,16.41
2023-07-02T18:33:16.925Z,15.59
2023-07-02T18:35:48.376Z,16.20
2023-07-02T18:38:19.907Z,15.28
2023-07-02T18:40:49.959Z,15.28
2023-07-02T18:43:19.990Z,14.83
2023-07-02T18:45:57.022Z,14.73
2023-07-02T18:48:27.364Z,15.03
2023-07-02T18:50:57.892Z,14.92
2023-07-02T18:53:28.821Z,14.41
2023-07-02T18:56:00.556Z,14.25
2023-07-02T18:58:32.789Z,14.11
2023-07-02T19:01:11.349Z,13.99
2023-07-02T19:03:41.778Z,14.35
2023-07-02T19:06:13.727Z,14.47
2023-07-02T19:08:44.830Z,14.01
2023-07-02T19:11:15.086Z,14.33
2023-07-02T19:13:45.390Z,14.53
2023-07-02T19:16:18.105Z,14.47
2023-07-02T19:18:48.309Z,14.88
2023-07-02T19:21:19.334Z,14.62
2023-07-02T19:23:50.400Z,15.41
2023-07-02T19:26:20.432Z,14.20
2023-07-02T19:28:50.722Z,13.52
2023-07-02T19:31:23.549Z,13.64
2023-07-02T19:33:53.746Z,13.74
2023-07-02T19:36:23.818Z,15.14
2023-07-02T19:38:53.954Z,14.31
2023-07-02T19:41:24.021Z,14.40
2023-07-02T19:43:55.480Z,14.06
2023-07-02T19:46:28.639Z,14.02
2023-07-02T19:49:00.351Z,15.67
2023-07-02T19:51:30.609Z,14.96
2023-07-02T19:54:01.414Z,13.82
2023-07-02T19:56:32.414Z,13.80
2023-07-02T19:59:02.851Z,14.39
2023-07-02T20:01:35.649Z,14.05
2023-07-02T20:04:05.877Z,13.91
2023-07-02T20:06:37.701Z,14.02
2023-07-02T20:09:08.161Z,14.01
2023-07-02T20:11:38.244Z,13.82
2023-07-02T20:14:08.406Z,13.74
2023-07-02T20:16:41.109Z,13.60
2023-07-02T20:19:11.343Z,13.93
2023-07-02T20:21:41.863Z,14.09
2023-07-02T20:24:11.894Z,14.07
2023-07-02T20:26:41.976Z,13.76
2023-07-02T20:29:11.958Z,13.54
2023-07-02T20:31:44.646Z,13.83
2023-07-02T20:34:16.496Z,13.63
2023-07-02T20:36:46.571Z,13.08
2023-07-02T20:39:16.577Z,14.58
2023-07-02T20:41:47.435Z,13.98
2023-07-02T20:44:18.149Z,14.13
2023-07-02T20:46:50.831Z,14.22
2023-07-02T20:49:23.434Z,14.28
2023-07-02T20:51:54.165Z,13.74
2023-07-02T20:54:24.290Z,13.93
2023-07-02T20:56:54.376Z,14.27
2023-07-02T20:59:24.461Z,14.83
2023-07-02T21:01:57.115Z,14.41
2023-07-02T21:04:27.322Z,14.20
2023-07-02T21:06:57.347Z,13.43
2023-07-02T21:09:28.416Z,13.22
2023-07-02T21:11:58.679Z,13.55
2023-07-02T21:14:28.738Z,13.53
2023-07-02T21:17:01.677Z,13.55
2023-07-02T21:19:31.865Z,13.01
2023-07-02T21:22:01.975Z,13.47
2023-07-02T21:24:32.061Z,13.68
2023-07-02T21:27:02.127Z,13.41
2023-07-02T21:29:32.306Z,13.29
2023-07-02T21:32:05.073Z,13.42
2023-07-02T21:34:37.040Z,12.78
2023-07-02T21:37:07.343Z,12.88
2023-07-02T21:39:37.404Z,12.91
2023-07-02T21:42:07.916Z,12.74
2023-07-02T21:44:37.954Z,13.04
2023-07-02T21:47:11.029Z,12.93
2023-07-02T21:49:41.124Z,12.66
2023-07-02T21:52:11.337Z,13.13
2023-07-02T21:54:41.428Z,12.75
2023-07-02T21:57:11.767Z,12.91
2023-07-02T21:59:41.854Z,12.57
2023-07-02T22:02:14.582Z,12.47
2023-07-02T22:04:47.310Z,12.83
2023-07-02T22:07:17.566Z,12.94
2023-07-02T22:09:48.272Z,12.45
2023-07-02T22:12:18.267Z,12.68
2023-07-02T22:14:48.305Z,12.55
2023-07-02T22:17:20.923Z,12.56
2023-07-02T22:19:51.031Z,12.92
2023-07-02T22:22:21.103Z,12.50
2023-07-02T22:24:51.557Z,12.75
2023-07-02T22:27:23.641Z,13.17
2023-07-02T22:29:53.688Z,13.48
2023-07-02T22:32:26.409Z,13.47
2023-07-02T22:34:56.568Z,13.41
2023-07-02T22:37:26.921Z,13.22
2023-07-02T22:39:57.144Z,12.47
2023-07-02T22:42:28.129Z,12.69
2023-07-02T22:44:58.387Z,12.54
2023-07-02T22:47:31.506Z,12.30
2023-07-02T22:50:01.590Z,12.40
2023-07-02T22:52:32.248Z,13.01
2023-07-02T22:55:02.745Z,13.23
2023-07-02T22:57:35.336Z,12.62
2023-07-02T23:00:13.434Z,12.76
2023-07-02T23:02:48.911Z,13.03
2023-07-02T23:05:23.940Z,13.42
2023-07-02T23:07:54.273Z,13.29
2023-07-02T23:10:24.286Z,13.22
2023-07-02T23:12:55.418Z,12.84
2023-07-02T23:15:25.684Z,12.78
2023-07-02T23:17:58.572Z,12.77
2023-07-02T23:20:29.256Z,12.54
2023-07-02T23:23:02.845Z,12.80
2023-07-02T23:25:32.810Z,13.10
2023-07-02T23:28:07.667Z,12.10
2023-07-02T23:30:43.085Z,12.02
2023-07-02T23:33:15.947Z,12.64
2023-07-02T23:35:46.132Z,12.81
2023-07-02T23:38:16.365Z,12.83
2023-07-02T23:40:47.084Z,12.42
2023-07-02T23:43:17.242Z,13.04
2023-07-02T23:45:47.413Z,12.82
2023-07-02T23:48:20.071Z,12.90
2023-07-02T23:50:50.291Z,12.62
2023-07-02T23:53:20.345Z,12.40
2023-07-02T23:55:51.695Z,12.36
2023-07-02T23:58:22.299Z,11.85
